createdAt,value
2019-02-12T00:02:29.932Z,16.13
2019-02-12T00:05:00.378Z,14.17
2019-02-12T00:07:31.032Z,12.80
2019-02-12T00:10:01.549Z,12.90
2019-02-12T00:12:32.256Z,12.27
2019-02-12T00:15:03.496Z,12.13
2019-02-12T00:17:33.924Z,11.97
2019-02-12T00:20:04.523Z,11.40
2019-02-12T00:22:34.982Z,10.33
2019-02-12T00:25:05.922Z,9.37
2019-02-12T00:27:36.348Z,8.63
2019-02-12T00:30:07.135Z,10.43
2019-02-12T00:32:37.782Z,9.63
2019-02-12T00:35:08.249Z,9.53
2019-02-12T00:37:38.919Z,9.90
2019-02-12T00:40:09.506Z,10.10
2019-02-12T00:42:39.942Z,10.20
2019-02-12T00:45:10.668Z,10.20
2019-02-12T00:47:41.099Z,10.73
2019-02-12T00:50:11.932Z,9.53
2019-02-12T00:52:42.368Z,10.43
2019-02-12T00:55:12.898Z,9.70
2019-02-12T00:57:43.520Z,10.23
2019-02-12T01:00:14.731Z,9.43
2019-02-12T01:02:45.210Z,10.87
2019-02-12T01:05:16.235Z,9.87
2019-02-12T01:07:47.172Z,10.00
2019-02-12T01:10:17.659Z,10.97
2019-02-12T01:12:48.137Z,9.47
2019-02-12T01:15:18.558Z,10.50
2019-02-12T01:17:49.087Z,9.80
2019-02-12T01:20:19.513Z,10.33
2019-02-12T01:22:50.147Z,9.17
2019-02-12T01:25:20.870Z,10.17
2019-02-12T01:27:51.308Z,9.67
2019-02-12T01:30:21.845Z,10.53
2019-02-12T01:32:52.263Z,9.27
2019-02-12T01:35:22.695Z,9.87
2019-02-12T01:37:53.135Z,10.03
2019-02-12T01:40:23.547Z,10.03
2019-02-12T01:42:55.669Z,9.37
2019-02-12T01:45:26.139Z,9.27
2019-02-12T01:47:56.570Z,9.47
2019-02-12T01:50:26.997Z,8.50
2019-02-12T01:52:58.715Z,8.20
2019-02-12T01:55:29.236Z,9.10
2019-02-12T01:57:59.706Z,9.90
2019-02-12T02:00:30.241Z,10.37
2019-02-12T02:03:01.687Z,10.50
2019-02-12T02:05:32.114Z,9.40
2019-02-12T02:08:02.607Z,10.17
2019-02-12T02:10:33.123Z,8.40
2019-02-12T02:13:03.607Z,8.97
2019-02-12T02:15:34.196Z,9.47
2019-02-12T02:18:04.661Z,8.73
2019-02-12T02:20:35.085Z,8.63
2019-02-12T02:23:05.557Z,8.40
2019-02-12T02:25:36.443Z,8.37
2019-02-12T02:28:06.949Z,6.97
2019-02-12T02:30:37.409Z,7.50
2019-02-12T02:33:07.840Z,7.73
2019-02-12T02:35:38.263Z,7.50
2019-02-12T02:38:08.607Z,8.27
2019-02-12T02:40:39.014Z,7.63
2019-02-12T02:43:09.543Z,6.80
2019-02-12T02:45:40.023Z,8.13
2019-02-12T02:48:10.502Z,6.70
2019-02-12T02:50:41.002Z,7.03
2019-02-12T02:53:11.504Z,5.73
2019-02-12T02:55:41.986Z,6.80
2019-02-12T02:58:12.414Z,6.90
2019-02-12T03:00:42.841Z,7.37
2019-02-12T03:03:14.292Z,5.40
2019-02-12T03:05:44.719Z,6.53
2019-02-12T03:08:15.196Z,6.20
2019-02-12T03:10:45.674Z,6.33
2019-02-12T03:13:17.031Z,5.30
2019-02-12T03:15:47.450Z,5.50
2019-02-12T03:18:17.929Z,5.67
2019-02-12T03:20:48.409Z,6.00
2019-02-12T03:23:18.882Z,5.63
2019-02-12T03:25:49.441Z,6.30
2019-02-12T03:28:20.008Z,5.47
2019-02-12T03:30:50.535Z,6.43
2019-02-12T03:33:22.181Z,5.87
2019-02-12T03:35:52.708Z,4.97
2019-02-12T03:38:25.839Z,5.30
2019-02-12T03:40:56.352Z,5.03
2019-02-12T03:43:26.856Z,5.57
2019-02-12T03:45:57.283Z,5.73
2019-02-12T03:48:27.816Z,5.57
2019-02-12T03:50:58.243Z,6.77
2019-02-12T03:53:29.796Z,5.57
2019-02-12T03:56:00.226Z,6.00
2019-02-12T03:58:30.757Z,6.37
2019-02-12T04:01:01.167Z,6.57
2019-02-12T04:03:32.218Z,6.03
2019-02-12T04:06:02.646Z,5.90
2019-02-12T04:08:33.043Z,6.90
2019-02-12T04:11:03.502Z,6.17
2019-02-12T04:13:34.951Z,5.70
2019-02-12T04:16:05.378Z,6.60
2019-02-12T04:18:35.810Z,6.70
2019-02-12T04:21:06.278Z,6.23
2019-02-12T04:23:36.805Z,5.67
2019-02-12T04:26:07.227Z,6.17
2019-02-12T04:28:39.002Z,6.20
2019-02-12T04:31:09.475Z,5.57
2019-02-12T04:33:40.931Z,6.43
2019-02-12T04:36:11.353Z,5.60
2019-02-12T04:38:42.088Z,5.37
2019-02-12T04:41:12.527Z,5.47
2019-02-12T04:43:43.043Z,5.70
2019-02-12T04:46:13.472Z,5.57
2019-02-12T04:48:43.886Z,5.87
2019-02-12T04:51:14.375Z,5.97
2019-02-12T04:53:45.161Z,5.80
2019-02-12T04:56:15.592Z,5.20
2019-02-12T04:58:46.024Z,6.20
2019-02-12T05:01:16.443Z,5.73
2019-02-12T05:03:47.893Z,5.17
2019-02-12T05:06:18.323Z,6.13
2019-02-12T05:09:13.598Z,6.50
2019-02-12T05:11:47.199Z,5.07
2019-02-12T05:14:17.657Z,5.73
2019-02-12T05:16:48.150Z,6.93
2019-02-12T05:19:18.766Z,6.60
2019-02-12T05:21:49.308Z,5.97
2019-02-12T05:24:19.879Z,5.87
2019-02-12T05:26:50.306Z,6.83
2019-02-12T05:29:20.939Z,5.37
2019-02-12T05:31:51.578Z,5.47
2019-02-12T05:34:21.998Z,5.70
2019-02-12T05:36:52.427Z,5.70
2019-02-12T05:39:22.855Z,4.87
2019-02-12T05:41:53.278Z,4.80
2019-02-12T05:44:23.807Z,5.03
2019-02-12T05:46:54.278Z,4.70
2019-02-12T05:49:24.763Z,4.57
2019-02-12T05:51:55.193Z,4.30
2019-02-12T05:54:25.709Z,4.00
2019-02-12T05:56:56.240Z,4.43
2019-02-12T05:59:26.695Z,4.30
2019-02-12T06:01:57.127Z,4.40
2019-02-12T06:04:27.736Z,4.77
2019-02-12T06:06:58.366Z,4.93
2019-02-12T06:09:28.783Z,6.50
2019-02-12T06:11:59.211Z,6.13
2019-02-12T06:14:29.853Z,5.03
2019-02-12T06:17:00.300Z,4.70
2019-02-12T06:19:30.800Z,5.30
2019-02-12T06:22:01.258Z,5.37
2019-02-12T06:24:31.983Z,5.40
2019-02-12T06:27:02.601Z,5.27
2019-02-12T06:29:33.225Z,5.27
2019-02-12T06:32:03.651Z,4.57
2019-02-12T06:34:34.090Z,5.63
2019-02-12T06:37:04.518Z,6.10
2019-02-12T06:39:34.931Z,5.37
2019-02-12T06:42:05.677Z,5.13
2019-02-12T06:44:36.143Z,6.17
2019-02-12T06:47:06.633Z,8.27
2019-02-12T06:49:37.058Z,8.77
2019-02-12T06:52:07.681Z,8.70
2019-02-12T06:54:38.125Z,7.33
2019-02-12T06:57:08.595Z,7.20
2019-02-12T06:59:39.082Z,7.50
2019-02-12T07:02:45.331Z,5.67
2019-02-12T07:05:15.768Z,5.87
2019-02-12T07:08:35.144Z,5.87
2019-02-12T07:11:20.266Z,5.77
2019-02-12T07:14:37.132Z,5.10
2019-02-12T07:17:44.182Z,6.03
2019-02-12T07:21:02.773Z,5.13
2019-02-12T07:23:59.198Z,6.27
2019-02-12T07:27:07.655Z,6.03
2019-02-12T07:30:06.471Z,6.97
2019-02-12T07:33:13.367Z,7.70
2019-02-12T07:36:25.101Z,6.90
2019-02-12T07:39:12.730Z,6.47
2019-02-12T07:42:09.066Z,7.53
2019-02-12T07:45:14.911Z,6.73
2019-02-12T07:48:47.199Z,6.83
2019-02-12T07:51:48.554Z,6.73
2019-02-12T07:55:03.228Z,6.80
2019-02-12T07:58:08.666Z,6.10
2019-02-12T08:01:01.661Z,6.80
2019-02-12T08:04:11.713Z,5.67
2019-02-12T08:07:22.960Z,4.93
2019-02-12T08:10:32.913Z,5.27
2019-02-12T08:13:39.082Z,4.77
2019-02-12T08:17:04.699Z,4.10
2019-02-12T08:20:01.407Z,3.50
2019-02-12T08:23:27.579Z,3.60
2019-02-12T08:26:16.683Z,3.53
2019-02-12T08:29:23.627Z,3.60
2019-02-12T08:32:19.648Z,3.80
2019-02-12T08:35:26.942Z,4.43
2019-02-12T08:38:29.440Z,4.20
2019-02-12T08:41:40.856Z,3.93
2019-02-12T08:44:55.275Z,4.13
2019-02-12T08:48:15.635Z,3.67
2019-02-12T08:51:04.792Z,3.90
2019-02-12T08:54:09.255Z,4.00
2019-02-12T08:56:55.111Z,3.70
2019-02-12T09:00:27.632Z,4.03
2019-02-12T09:03:33.388Z,3.30
2019-02-12T09:06:45.759Z,3.67
2019-02-12T09:10:10.819Z,3.57
2019-02-12T09:13:29.049Z,3.20
2019-02-12T09:16:35.931Z,3.37
2019-02-12T09:19:46.499Z,3.20
2019-02-12T09:22:59.219Z,3.03
2019-02-12T09:25:55.030Z,3.03
2019-02-12T09:28:42.262Z,3.57
2019-02-12T09:31:59.024Z,3.30
2019-02-12T09:34:47.902Z,3.37
2019-02-12T09:38:05.364Z,3.00
2019-02-12T09:41:03.950Z,2.73
2019-02-12T09:44:33.163Z,2.53
2019-02-12T09:47:34.065Z,2.73
2019-02-12T09:50:41.257Z,3.00
2019-02-12T09:53:57.902Z,3.03
2019-02-12T09:57:21.234Z,2.67
2019-02-12T10:00:13.075Z,3.03
2019-02-12T10:03:20.083Z,2.33
2019-02-12T10:06:21.550Z,3.03
2019-02-12T10:09:31.769Z,2.20
2019-02-12T10:12:27.629Z,2.47
2019-02-12T10:15:25.281Z,2.10
2019-02-12T10:18:27.017Z,2.17
2019-02-12T10:21:28.302Z,2.37
2019-02-12T10:24:27.793Z,2.40
2019-02-12T10:27:09.362Z,2.45
2019-02-12T10:30:10.545Z,2.30
2019-02-12T10:32:39.019Z,1.98
2019-02-12T10:35:09.719Z,2.72
2019-02-12T10:37:40.179Z,2.58
2019-02-12T10:40:10.783Z,2.65
2019-02-12T10:42:41.243Z,2.12
2019-02-12T10:45:11.870Z,2.25
2019-02-12T10:47:42.278Z,2.80
2019-02-12T10:50:12.862Z,2.77
2019-02-12T10:52:45.394Z,2.50
2019-02-12T10:55:15.833Z,2.50
2019-02-12T10:57:46.266Z,2.98
2019-02-12T11:00:16.930Z,2.80
2019-02-12T11:02:48.351Z,2.47
2019-02-12T11:05:19.105Z,2.33
2019-02-12T11:07:49.604Z,2.52
2019-02-12T11:10:20.031Z,2.60
2019-02-12T11:12:52.506Z,2.83
2019-02-12T11:15:22.933Z,2.50
2019-02-12T11:17:53.462Z,2.58
2019-02-12T11:20:23.992Z,2.52
2019-02-12T11:22:54.420Z,2.92
2019-02-12T11:25:24.846Z,2.90
2019-02-12T11:27:55.272Z,2.52
2019-02-12T11:30:26.018Z,2.45
2019-02-12T11:32:56.730Z,2.37
2019-02-12T11:35:27.168Z,2.95
2019-02-12T11:37:57.595Z,2.55
2019-02-12T11:40:28.332Z,2.83
2019-02-12T11:42:59.789Z,2.87
2019-02-12T11:45:49.050Z,2.55
2019-02-12T11:48:19.528Z,2.47
2019-02-12T11:50:50.005Z,2.35
2019-02-12T11:53:20.483Z,2.60
2019-02-12T11:55:50.996Z,2.47
2019-02-12T11:58:21.667Z,2.60
2019-02-12T12:00:59.293Z,2.30
2019-02-12T12:03:29.838Z,2.27
2019-02-12T12:06:06.244Z,2.45
2019-02-12T12:08:36.716Z,1.92
2019-02-12T12:11:07.144Z,2.60
2019-02-12T12:13:38.687Z,2.20
2019-02-12T12:16:09.329Z,2.12
2019-02-12T12:18:39.959Z,2.10
2019-02-12T12:21:10.392Z,2.35
2019-02-12T12:23:40.918Z,2.35
2019-02-12T12:26:11.346Z,2.08
2019-02-12T12:28:43.326Z,2.25
2019-02-12T12:31:13.938Z,1.62
2019-02-12T12:33:44.672Z,1.20
2019-02-12T12:36:15.128Z,1.52
2019-02-12T12:38:45.735Z,1.40
2019-02-12T12:41:17.919Z,1.67
2019-02-12T12:44:00.309Z,1.90
2019-02-12T12:46:30.955Z,2.10
2019-02-12T12:49:01.652Z,1.90
2019-02-12T12:51:32.099Z,2.20
2019-02-12T12:54:02.515Z,2.10
2019-02-12T12:56:32.959Z,1.60
2019-02-12T12:59:03.371Z,1.22
2019-02-12T13:01:33.757Z,1.52
2019-02-12T13:04:04.237Z,1.60
2019-02-12T13:06:34.716Z,1.95
2019-02-12T13:09:05.775Z,1.90
2019-02-12T13:11:36.247Z,1.92
2019-02-12T13:14:06.761Z,1.65
2019-02-12T13:16:37.189Z,1.80
2019-02-12T13:19:08.510Z,1.50
2019-02-12T13:21:38.963Z,1.82
2019-02-12T13:24:10.415Z,2.02
2019-02-12T13:26:40.842Z,2.00
2019-02-12T13:29:11.271Z,1.80
2019-02-12T13:31:41.698Z,1.80
2019-02-12T13:34:13.257Z,2.15
2019-02-12T13:36:43.849Z,1.90
2019-02-12T13:39:14.373Z,2.10
2019-02-12T13:41:44.837Z,2.22
2019-02-12T13:44:16.287Z,2.00
2019-02-12T13:46:47.022Z,1.92
2019-02-12T13:49:17.622Z,2.20
2019-02-12T13:51:48.082Z,2.08
2019-02-12T13:54:18.498Z,2.30
2019-02-12T13:56:48.933Z,1.82
2019-02-12T13:59:19.362Z,2.40
2019-02-12T14:01:49.793Z,1.72
2019-02-12T14:04:20.326Z,1.80
2019-02-12T14:06:50.745Z,1.80
2019-02-12T14:09:21.171Z,1.67
2019-02-12T14:11:51.652Z,2.15
2019-02-12T14:14:22.129Z,1.72
2019-02-12T14:16:52.760Z,2.35
2019-02-12T14:19:23.177Z,1.65
2019-02-12T14:21:53.613Z,2.08
2019-02-12T14:24:24.041Z,2.90
2019-02-12T14:26:54.575Z,1.90
2019-02-12T14:29:24.997Z,1.90
2019-02-12T14:31:55.529Z,1.80
2019-02-12T14:34:26.049Z,2.00
2019-02-12T14:36:56.692Z,2.62
2019-02-12T14:39:27.114Z,2.55
2019-02-12T14:41:57.545Z,2.30
2019-02-12T14:44:28.176Z,2.77
2019-02-12T14:46:58.740Z,2.20
2019-02-12T14:49:29.352Z,2.20
2019-02-12T14:52:01.511Z,1.70
2019-02-12T14:54:34.694Z,3.10
2019-02-12T14:57:05.121Z,2.67
2019-02-12T14:59:35.563Z,3.00
2019-02-12T15:02:06.143Z,2.45
2019-02-12T15:04:36.630Z,2.30
2019-02-12T15:07:22.292Z,2.00
2019-02-12T15:09:52.740Z,2.02
2019-02-12T15:12:23.248Z,2.22
2019-02-12T15:14:53.908Z,2.50
2019-02-12T15:17:43.046Z,2.22
2019-02-12T15:20:13.658Z,2.05
2019-02-12T15:22:44.104Z,2.10
2019-02-12T15:25:14.539Z,2.72
2019-02-12T15:27:45.266Z,2.87
2019-02-12T15:30:15.888Z,2.45
2019-02-12T15:32:46.530Z,2.47
2019-02-12T15:35:16.963Z,2.40
2019-02-12T15:37:47.486Z,2.22
2019-02-12T15:40:17.883Z,2.45
2019-02-12T15:42:48.341Z,2.37
2019-02-12T15:45:19.124Z,2.40
2019-02-12T15:47:49.655Z,2.22
2019-02-12T15:50:20.144Z,2.98
2019-02-12T15:52:50.670Z,2.52
2019-02-12T15:55:21.079Z,2.30
2019-02-12T15:57:51.721Z,2.22
2019-02-12T16:00:22.357Z,2.55
2019-02-12T16:02:54.537Z,2.40
2019-02-12T16:05:24.883Z,2.42
2019-02-12T16:07:55.272Z,2.20
2019-02-12T16:10:25.697Z,1.90
2019-02-12T16:12:57.141Z,2.85
2019-02-12T16:15:27.568Z,2.30
2019-02-12T16:18:00.146Z,2.80
2019-02-12T16:20:33.090Z,2.45
2019-02-12T16:23:04.081Z,2.62
2019-02-12T16:25:34.515Z,2.92
2019-02-12T16:28:06.167Z,2.58
2019-02-12T16:30:36.589Z,3.20
2019-02-12T16:33:08.041Z,3.00
2019-02-12T16:35:38.673Z,2.75
2019-02-12T16:38:09.202Z,3.17
2019-02-12T16:40:39.643Z,3.08
2019-02-12T16:43:10.259Z,2.75
2019-02-12T16:45:44.958Z,3.50
2019-02-12T16:48:15.484Z,3.25
2019-02-12T16:50:45.952Z,3.33
2019-02-12T16:53:17.405Z,3.30
2019-02-12T16:55:47.823Z,2.97
2019-02-12T16:58:18.283Z,3.30
2019-02-12T17:00:48.787Z,3.20
2019-02-12T17:03:19.319Z,3.70
2019-02-12T17:05:49.736Z,3.23
2019-02-12T17:08:20.179Z,3.67
2019-02-12T17:10:50.962Z,3.70
2019-02-12T17:13:21.736Z,3.83
2019-02-12T17:15:52.197Z,3.03
2019-02-12T17:18:22.689Z,3.30
2019-02-12T17:20:53.167Z,3.27
2019-02-12T17:23:23.691Z,3.40
2019-02-12T17:25:54.176Z,4.20
2019-02-12T17:28:24.635Z,4.20
2019-02-12T17:30:55.303Z,5.13
2019-02-12T17:33:25.765Z,5.23
2019-02-12T17:35:56.189Z,4.60
2019-02-12T17:38:26.791Z,4.43
2019-02-12T17:40:57.323Z,4.70
2019-02-12T17:43:27.795Z,5.27
2019-02-12T17:45:58.205Z,5.03
2019-02-12T17:48:29.712Z,6.37
2019-02-12T17:51:00.827Z,7.63
2019-02-12T17:53:31.463Z,7.03
2019-02-12T17:56:01.971Z,6.70
2019-02-12T17:58:32.489Z,6.90
2019-02-12T18:01:03.026Z,6.07
2019-02-12T18:03:33.449Z,5.40
2019-02-12T18:06:03.899Z,6.33
2019-02-12T18:08:34.303Z,6.23
2019-02-12T18:11:04.727Z,5.27
2019-02-12T18:13:35.190Z,5.20
2019-02-12T18:16:05.683Z,6.80
2019-02-12T18:18:36.099Z,7.10
2019-02-12T18:21:06.717Z,7.00
2019-02-12T18:23:37.274Z,6.90
2019-02-12T18:26:07.905Z,7.30
2019-02-12T18:28:38.364Z,7.83
2019-02-12T18:31:08.829Z,7.97
2019-02-12T18:33:39.286Z,9.97
2019-02-12T18:36:09.816Z,11.63
2019-02-12T18:38:40.418Z,10.67
2019-02-12T18:41:11.083Z,11.07
2019-02-12T18:43:41.515Z,11.40
2019-02-12T18:46:11.937Z,11.97
2019-02-12T18:48:42.360Z,11.27
2019-02-12T18:51:12.787Z,11.47
2019-02-12T18:53:43.366Z,10.50
2019-02-12T18:56:14.056Z,10.33
2019-02-12T18:58:44.485Z,9.73
2019-02-12T19:01:14.907Z,10.73
2019-02-12T19:03:46.359Z,9.93
2019-02-12T19:06:17.808Z,10.00
2019-02-12T19:08:48.617Z,10.60
2019-02-12T19:11:19.077Z,12.37
2019-02-12T19:13:50.528Z,11.77
2019-02-12T19:16:20.953Z,11.67
2019-02-12T19:18:51.379Z,13.17
2019-02-12T19:21:21.859Z,14.90
2019-02-12T19:23:52.650Z,14.63
2019-02-12T19:26:23.269Z,15.23
2019-02-12T19:28:53.731Z,16.00
2019-02-12T19:31:24.227Z,16.90
2019-02-12T19:33:55.683Z,15.50
2019-02-12T19:36:26.108Z,16.87
2019-02-12T19:38:56.739Z,17.57
2019-02-12T19:41:27.235Z,18.77
2019-02-12T19:43:57.725Z,18.63
2019-02-12T19:46:28.223Z,17.47
2019-02-12T19:48:58.755Z,17.03
2019-02-12T19:51:29.283Z,17.53
2019-02-12T19:53:59.714Z,18.00
2019-02-12T19:56:30.443Z,19.73
2019-02-12T19:59:00.983Z,21.53
2019-02-12T20:01:31.603Z,18.87
2019-02-12T20:04:02.133Z,15.73
2019-02-12T20:06:32.570Z,17.30
2019-02-12T20:09:04.671Z,14.97
2019-02-12T20:11:35.265Z,14.70
2019-02-12T20:14:05.907Z,14.57
2019-02-12T20:16:36.318Z,14.97
2019-02-12T20:19:06.758Z,16.17
2019-02-12T20:21:37.458Z,15.57
2019-02-12T20:24:08.420Z,14.07
2019-02-12T20:26:38.924Z,16.07
2019-02-12T20:29:09.451Z,14.67
2019-02-12T20:31:39.915Z,13.87
2019-02-12T20:34:10.436Z,15.60
2019-02-12T20:36:40.867Z,15.17
2019-02-12T20:39:11.844Z,14.03
2019-02-12T20:41:42.354Z,15.27
2019-02-12T20:44:12.867Z,15.47
2019-02-12T20:46:43.359Z,16.00
2019-02-12T20:49:13.816Z,16.77
2019-02-12T20:51:44.271Z,17.50
2019-02-12T20:54:14.942Z,17.20
2019-02-12T20:56:45.455Z,18.30
2019-02-12T20:59:15.977Z,17.43
2019-02-12T21:01:46.539Z,19.47
2019-02-12T21:04:16.990Z,18.77
2019-02-12T21:06:47.620Z,18.67
2019-02-12T21:09:18.225Z,19.03
2019-02-12T21:11:48.986Z,19.30
2019-02-12T21:14:19.415Z,19.37
2019-02-12T21:16:49.944Z,20.40
2019-02-12T21:19:20.370Z,21.27
2019-02-12T21:21:50.949Z,22.27
2019-02-12T21:24:21.577Z,20.07
2019-02-12T21:26:52.070Z,19.83
2019-02-12T21:29:22.589Z,20.07
2019-02-12T21:31:53.022Z,20.57
2019-02-12T21:34:24.481Z,21.77
2019-02-12T21:36:54.896Z,25.93
2019-02-12T21:39:25.631Z,22.60
2019-02-12T21:41:56.106Z,23.67
2019-02-12T21:44:26.590Z,22.77
2019-02-12T21:46:57.266Z,20.57
2019-02-12T21:49:27.748Z,22.70
2019-02-12T21:51:58.465Z,21.83
2019-02-12T21:54:29.419Z,22.03
2019-02-12T21:56:59.910Z,22.67
2019-02-12T21:59:30.501Z,22.70
2019-02-12T22:02:01.184Z,19.30
2019-02-12T22:04:31.814Z,22.03
2019-02-12T22:07:02.310Z,20.77
2019-02-12T22:09:32.827Z,19.03
2019-02-12T22:12:03.365Z,22.23
2019-02-12T22:14:33.962Z,19.60
2019-02-12T22:17:05.522Z,18.07
2019-02-12T22:19:36.146Z,17.23
2019-02-12T22:22:06.748Z,17.93
2019-02-12T22:24:37.434Z,17.13
2019-02-12T22:27:08.156Z,17.10
2019-02-12T22:29:38.579Z,17.17
2019-02-12T22:32:10.235Z,15.27
2019-02-12T22:34:40.679Z,16.70
2019-02-12T22:37:11.196Z,16.00
2019-02-12T22:39:41.861Z,15.57
2019-02-12T22:42:12.402Z,16.37
2019-02-12T22:44:42.912Z,16.40
2019-02-12T22:47:13.506Z,18.30
2019-02-12T22:49:43.951Z,17.10
2019-02-12T22:52:14.544Z,15.93
2019-02-12T22:54:45.023Z,16.13
2019-02-12T22:57:15.651Z,16.03
2019-02-12T22:59:46.151Z,17.03
2019-02-12T23:02:16.885Z,17.73
2019-02-12T23:04:47.520Z,19.23
2019-02-12T23:07:18.254Z,17.57
2019-02-12T23:09:48.829Z,18.47
2019-02-12T23:12:19.413Z,18.37
2019-02-12T23:14:53.937Z,20.87
2019-02-12T23:17:24.435Z,19.70
2019-02-12T23:19:54.894Z,21.30
2019-02-12T23:22:25.363Z,22.60
2019-02-12T23:24:55.968Z,22.73
2019-02-12T23:27:26.378Z,23.33
2019-02-12T23:29:56.805Z,24.10
2019-02-12T23:32:27.236Z,25.03
2019-02-12T23:34:57.709Z,25.60
2019-02-12T23:37:28.087Z,26.50
2019-02-12T23:39:58.620Z,27.67
2019-02-12T23:42:29.453Z,28.63
2019-02-12T23:44:59.910Z,28.53
2019-02-12T23:47:30.483Z,28.97
2019-02-12T23:50:00.937Z,29.77
2019-02-12T23:52:31.366Z,29.67
2019-02-12T23:55:04.223Z,30.03
2019-02-12T23:57:34.679Z,30.47
